sensor_id;sensor_type;location;lat;lon;timestamp;temperature;humidity
37782;DHT22;23621;50.878;4.584;2022-11-20T00:01:22;12.10;66.00
37782;DHT22;23621;50.878;4.584;2022-11-20T00:03:51;12.00;66.00
37782;DHT22;23621;50.878;4.584;2022-11-20T00:06:20;12.00;66.20
37782;DHT22;23621;50.878;4.584;2022-11-20T00:08:47;12.00;66.30
37782;DHT22;23621;50.878;4.584;2022-11-20T00:11:18;12.00;66.40
37782;DHT22;23621;50.878;4.584;2022-11-20T00:13:47;11.90;66.40
37782;DHT22;23621;50.878;4.584;2022-11-20T00:16:17;12.00;66.40
37782;DHT22;23621;50.878;4.584;2022-11-20T00:18:45;12.00;66.30
37782;DHT22;23621;50.878;4.584;2022-11-20T00:21:20;12.10;66.30
37782;DHT22;23621;50.878;4.584;2022-11-20T00:23:49;12.10;66.20
37782;DHT22;23621;50.878;4.584;2022-11-20T00:26:18;12.10;66.40
37782;DHT22;23621;50.878;4.584;2022-11-20T00:28:50;12.00;66.40
37782;DHT22;23621;50.878;4.584;2022-11-20T00:31:18;12.00;66.70
37782;DHT22;23621;50.878;4.584;2022-11-20T00:33:45;12.00;66.80
37782;DHT22;23621;50.878;4.584;2022-11-20T00:36:15;12.00;66.90
37782;DHT22;23621;50.878;4.584;2022-11-20T00:38:42;11.90;67.00
37782;DHT22;23621;50.878;4.584;2022-11-20T00:41:12;12.00;67.10
37782;DHT22;23621;50.878;4.584;2022-11-20T00:43:39;11.90;67.00
37782;DHT22;23621;50.878;4.584;2022-11-20T00:46:08;11.90;66.90
37782;DHT22;23621;50.878;4.584;2022-11-20T00:48:35;12.00;67.10
37782;DHT22;23621;50.878;4.584;2022-11-20T00:51:03;11.90;67.00
37782;DHT22;23621;50.878;4.584;2022-11-20T00:53:30;11.90;67.00
37782;DHT22;23621;50.878;4.584;2022-11-20T00:56:09;11.90;66.90
37782;DHT22;23621;50.878;4.584;2022-11-20T00:58:37;11.90;67.00
37782;DHT22;23621;50.878;4.584;2022-11-20T01:01:08;12.00;67.00
37782;DHT22;23621;50.878;4.584;2022-11-20T01:03:40;12.00;67.00
37782;DHT22;23621;50.878;4.584;2022-11-20T01:06:14;11.90;66.90
37782;DHT22;23621;50.878;4.584;2022-11-20T01:08:42;11.90;67.00
37782;DHT22;23621;50.878;4.584;2022-11-20T01:11:29;11.90;66.90
37782;DHT22;23621;50.878;4.584;2022-11-20T01:13:58;11.90;66.80
37782;DHT22;23621;50.878;4.584;2022-11-20T01:16:30;11.90;66.70
37782;DHT22;23621;50.878;4.584;2022-11-20T01:18:59;11.90;66.80
37782;DHT22;23621;50.878;4.584;2022-11-20T01:21:29;11.90;66.90
37782;DHT22;23621;50.878;4.584;2022-11-20T01:23:57;11.80;67.00
37782;DHT22;23621;50.878;4.584;2022-11-20T01:26:32;11.80;67.30
37782;DHT22;23621;50.878;4.584;2022-11-20T01:29:00;11.80;67.40
37782;DHT22;23621;50.878;4.584;2022-11-20T01:31:30;11.80;67.50
37782;DHT22;23621;50.878;4.584;2022-11-20T01:34:00;11.70;67.50
37782;DHT22;23621;50.878;4.584;2022-11-20T01:36:29;11.80;67.60
37782;DHT22;23621;50.878;4.584;2022-11-20T01:39:02;11.70;67.60
37782;DHT22;23621;50.878;4.584;2022-11-20T01:41:31;11.70;67.60
37782;DHT22;23621;50.878;4.584;2022-11-20T01:44:19;11.80;67.70
37782;DHT22;23621;50.878;4.584;2022-11-20T01:46:56;11.70;67.70
37782;DHT22;23621;50.878;4.584;2022-11-20T01:49:30;11.80;67.70
37782;DHT22;23621;50.878;4.584;2022-11-20T01:52:03;11.80;67.70
37782;DHT22;23621;50.878;4.584;2022-11-20T01:54:46;11.80;67.70
37782;DHT22;23621;50.878;4.584;2022-11-20T01:57:15;11.80;67.70
37782;DHT22;23621;50.878;4.584;2022-11-20T01:59:49;11.80;67.60
37782;DHT22;23621;50.878;4.584;2022-11-20T02:02:16;11.80;67.70
37782;DHT22;23621;50.878;4.584;2022-11-20T02:04:44;11.80;67.70
37782;DHT22;23621;50.878;4.584;2022-11-20T02:07:11;11.70;67.70
37782;DHT22;23621;50.878;4.584;2022-11-20T02:09:39;11.80;68.00
37782;DHT22;23621;50.878;4.584;2022-11-20T02:12:06;11.80;67.90
37782;DHT22;23621;50.878;4.584;2022-11-20T02:14:53;11.70;67.70
37782;DHT22;23621;50.878;4.584;2022-11-20T02:17:20;11.70;68.50
37782;DHT22;23621;50.878;4.584;2022-11-20T02:19:47;11.70;67.90
37782;DHT22;23621;50.878;4.584;2022-11-20T02:22:19;11.70;68.10
37782;DHT22;23621;50.878;4.584;2022-11-20T02:24:48;11.70;68.20
37782;DHT22;23621;50.878;4.584;2022-11-20T02:27:16;11.70;68.10
37782;DHT22;23621;50.878;4.584;2022-11-20T02:29:56;11.70;68.10
37782;DHT22;23621;50.878;4.584;2022-11-20T02:32:30;11.70;68.20
37782;DHT22;23621;50.878;4.584;2022-11-20T02:34:57;11.70;68.20
37782;DHT22;23621;50.878;4.584;2022-11-20T02:37:30;11.70;68.20
37782;DHT22;23621;50.878;4.584;2022-11-20T02:39:59;11.70;68.30
37782;DHT22;23621;50.878;4.584;2022-11-20T02:42:25;11.70;68.30
37782;DHT22;23621;50.878;4.584;2022-11-20T02:44:52;11.70;68.30
37782;DHT22;23621;50.878;4.584;2022-11-20T02:47:19;11.60;68.30
37782;DHT22;23621;50.878;4.584;2022-11-20T02:49:46;11.70;68.40
37782;DHT22;23621;50.878;4.584;2022-11-20T02:52:13;11.60;68.30
37782;DHT22;23621;50.878;4.584;2022-11-20T02:54:40;11.70;68.50
37782;DHT22;23621;50.878;4.584;2022-11-20T02:57:06;11.70;68.50
37782;DHT22;23621;50.878;4.584;2022-11-20T02:59:33;11.80;68.60
37782;DHT22;23621;50.878;4.584;2022-11-20T03:02:00;11.80;68.50
37782;DHT22;23621;50.878;4.584;2022-11-20T03:04:27;11.80;68.40
37782;DHT22;23621;50.878;4.584;2022-11-20T03:06:54;11.90;68.50
37782;DHT22;23621;50.878;4.584;2022-11-20T03:09:21;11.90;68.60
37782;DHT22;23621;50.878;4.584;2022-11-20T03:11:48;11.90;68.60
37782;DHT22;23621;50.878;4.584;2022-11-20T03:14:15;11.90;68.60
37782;DHT22;23621;50.878;4.584;2022-11-20T03:16:42;11.90;68.50
37782;DHT22;23621;50.878;4.584;2022-11-20T03:19:10;11.90;68.50
37782;DHT22;23621;50.878;4.584;2022-11-20T03:21:37;11.90;68.60
37782;DHT22;23621;50.878;4.584;2022-11-20T03:24:05;11.90;68.50
37782;DHT22;23621;50.878;4.584;2022-11-20T03:26:34;11.90;68.60
37782;DHT22;23621;50.878;4.584;2022-11-20T03:29:03;11.90;68.60
37782;DHT22;23621;50.878;4.584;2022-11-20T03:31:36;11.90;68.70
37782;DHT22;23621;50.878;4.584;2022-11-20T03:34:04;11.90;68.80
37782;DHT22;23621;50.878;4.584;2022-11-20T03:36:31;11.90;68.70
37782;DHT22;23621;50.878;4.584;2022-11-20T03:38:58;11.90;68.80
37782;DHT22;23621;50.878;4.584;2022-11-20T03:41:28;11.90;68.80
37782;DHT22;23621;50.878;4.584;2022-11-20T03:43:57;11.90;68.90
37782;DHT22;23621;50.878;4.584;2022-11-20T03:46:25;12.00;69.00
37782;DHT22;23621;50.878;4.584;2022-11-20T03:48:53;12.00;69.00
37782;DHT22;23621;50.878;4.584;2022-11-20T03:51:22;12.00;69.00
37782;DHT22;23621;50.878;4.584;2022-11-20T03:53:51;12.00;69.10
37782;DHT22;23621;50.878;4.584;2022-11-20T03:56:20;12.00;69.10
37782;DHT22;23621;50.878;4.584;2022-11-20T03:58:48;12.10;69.80
37782;DHT22;23621;50.878;4.584;2022-11-20T04:01:17;12.10;69.00
37782;DHT22;23621;50.878;4.584;2022-11-20T04:03:45;12.10;69.10
37782;DHT22;23621;50.878;4.584;2022-11-20T04:06:18;12.10;69.10
37782;DHT22;23621;50.878;4.584;2022-11-20T04:08:45;12.10;69.20
37782;DHT22;23621;50.878;4.584;2022-11-20T04:11:21;12.10;69.20
37782;DHT22;23621;50.878;4.584;2022-11-20T04:13:51;12.20;69.30
37782;DHT22;23621;50.878;4.584;2022-11-20T04:16:18;12.10;69.10
37782;DHT22;23621;50.878;4.584;2022-11-20T04:18:45;12.10;69.10
37782;DHT22;23621;50.878;4.584;2022-11-20T04:21:12;12.20;69.20
37782;DHT22;23621;50.878;4.584;2022-11-20T04:23:39;12.10;69.00
37782;DHT22;23621;50.878;4.584;2022-11-20T04:26:09;12.10;69.00
37782;DHT22;23621;50.878;4.584;2022-11-20T04:28:36;12.10;69.10
37782;DHT22;23621;50.878;4.584;2022-11-20T04:31:10;12.10;69.10
37782;DHT22;23621;50.878;4.584;2022-11-20T04:33:38;12.00;69.00
37782;DHT22;23621;50.878;4.584;2022-11-20T04:36:07;12.00;69.00
37782;DHT22;23621;50.878;4.584;2022-11-20T04:38:37;12.00;69.00
37782;DHT22;23621;50.878;4.584;2022-11-20T04:41:05;12.00;69.00
37782;DHT22;23621;50.878;4.584;2022-11-20T04:43:33;12.00;69.00
37782;DHT22;23621;50.878;4.584;2022-11-20T04:46:01;12.00;68.90
37782;DHT22;23621;50.878;4.584;2022-11-20T04:48:29;12.00;69.00
37782;DHT22;23621;50.878;4.584;2022-11-20T04:50:56;11.90;68.90
37782;DHT22;23621;50.878;4.584;2022-11-20T04:53:23;11.90;68.70
37782;DHT22;23621;50.878;4.584;2022-11-20T04:55:50;11.90;68.80
37782;DHT22;23621;50.878;4.584;2022-11-20T04:58:17;11.90;68.70
37782;DHT22;23621;50.878;4.584;2022-11-20T05:00:44;11.90;68.70
37782;DHT22;23621;50.878;4.584;2022-11-20T05:03:11;11.90;68.70
37782;DHT22;23621;50.878;4.584;2022-11-20T05:05:37;11.90;68.80
37782;DHT22;23621;50.878;4.584;2022-11-20T05:08:04;11.90;68.90
37782;DHT22;23621;50.878;4.584;2022-11-20T05:10:31;11.90;69.00
37782;DHT22;23621;50.878;4.584;2022-11-20T05:12:58;11.90;69.10
37782;DHT22;23621;50.878;4.584;2022-11-20T05:15:25;11.90;69.00
37782;DHT22;23621;50.878;4.584;2022-11-20T05:17:52;12.00;69.20
37782;DHT22;23621;50.878;4.584;2022-11-20T05:20:19;12.00;69.20
37782;DHT22;23621;50.878;4.584;2022-11-20T05:22:46;12.00;69.10
37782;DHT22;23621;50.878;4.584;2022-11-20T05:25:13;12.00;69.10
37782;DHT22;23621;50.878;4.584;2022-11-20T05:27:41;12.10;69.20
37782;DHT22;23621;50.878;4.584;2022-11-20T05:30:08;12.10;69.30
37782;DHT22;23621;50.878;4.584;2022-11-20T05:32:35;12.00;69.30
37782;DHT22;23621;50.878;4.584;2022-11-20T05:35:02;12.00;69.30
37782;DHT22;23621;50.878;4.584;2022-11-20T05:37:29;12.10;69.50
37782;DHT22;23621;50.878;4.584;2022-11-20T05:39:56;12.10;69.50
37782;DHT22;23621;50.878;4.584;2022-11-20T05:42:22;12.10;69.50
37782;DHT22;23621;50.878;4.584;2022-11-20T05:45:02;12.10;69.50
37782;DHT22;23621;50.878;4.584;2022-11-20T05:47:34;12.10;69.50
37782;DHT22;23621;50.878;4.584;2022-11-20T05:50:02;12.10;69.50
37782;DHT22;23621;50.878;4.584;2022-11-20T05:52:29;12.10;69.50
37782;DHT22;23621;50.878;4.584;2022-11-20T05:54:56;12.10;69.50
37782;DHT22;23621;50.878;4.584;2022-11-20T05:57:23;12.10;69.50
37782;DHT22;23621;50.878;4.584;2022-11-20T05:59:52;12.20;69.60
37782;DHT22;23621;50.878;4.584;2022-11-20T06:02:19;12.10;69.60
37782;DHT22;23621;50.878;4.584;2022-11-20T06:04:46;12.20;69.60
37782;DHT22;23621;50.878;4.584;2022-11-20T06:07:13;12.20;69.70
37782;DHT22;23621;50.878;4.584;2022-11-20T06:09:40;12.20;69.50
37782;DHT22;23621;50.878;4.584;2022-11-20T06:12:07;12.30;69.50
37782;DHT22;23621;50.878;4.584;2022-11-20T06:14:34;12.30;69.50
37782;DHT22;23621;50.878;4.584;2022-11-20T06:17:01;12.40;69.50
37782;DHT22;23621;50.878;4.584;2022-11-20T06:19:28;12.40;69.40
37782;DHT22;23621;50.878;4.584;2022-11-20T06:21:55;12.40;69.20
37782;DHT22;23621;50.878;4.584;2022-11-20T06:24:21;12.40;69.20
37782;DHT22;23621;50.878;4.584;2022-11-20T06:26:49;12.40;69.20
37782;DHT22;23621;50.878;4.584;2022-11-20T06:29:16;12.40;69.00
37782;DHT22;23621;50.878;4.584;2022-11-20T06:31:43;12.50;69.20
37782;DHT22;23621;50.878;4.584;2022-11-20T06:34:10;12.40;69.10
37782;DHT22;23621;50.878;4.584;2022-11-20T06:36:37;12.40;69.10
37782;DHT22;23621;50.878;4.584;2022-11-20T06:39:04;12.50;69.30
37782;DHT22;23621;50.878;4.584;2022-11-20T06:41:30;12.50;69.20
37782;DHT22;23621;50.878;4.584;2022-11-20T06:43:57;12.50;69.20
37782;DHT22;23621;50.878;4.584;2022-11-20T06:46:24;12.50;69.30
37782;DHT22;23621;50.878;4.584;2022-11-20T06:48:51;12.40;69.20
37782;DHT22;23621;50.878;4.584;2022-11-20T06:51:18;12.40;69.30
37782;DHT22;23621;50.878;4.584;2022-11-20T06:53:45;12.40;69.40
37782;DHT22;23621;50.878;4.584;2022-11-20T06:56:12;12.40;69.50
37782;DHT22;23621;50.878;4.584;2022-11-20T06:58:39;12.40;69.60
37782;DHT22;23621;50.878;4.584;2022-11-20T07:01:09;12.40;69.70
37782;DHT22;23621;50.878;4.584;2022-11-20T07:03:37;12.30;69.90
37782;DHT22;23621;50.878;4.584;2022-11-20T07:06:05;12.30;70.00
37782;DHT22;23621;50.878;4.584;2022-11-20T07:08:32;12.30;70.00
37782;DHT22;23621;50.878;4.584;2022-11-20T07:11:01;12.40;70.10
37782;DHT22;23621;50.878;4.584;2022-11-20T07:13:31;12.40;70.80
37782;DHT22;23621;50.878;4.584;2022-11-20T07:16:03;12.40;70.00
37782;DHT22;23621;50.878;4.584;2022-11-20T07:18:30;12.50;70.20
37782;DHT22;23621;50.878;4.584;2022-11-20T07:21:01;12.50;70.10
37782;DHT22;23621;50.878;4.584;2022-11-20T07:23:29;12.50;70.10
37782;DHT22;23621;50.878;4.584;2022-11-20T07:25:56;12.60;70.30
37782;DHT22;23621;50.878;4.584;2022-11-20T07:28:22;12.60;70.20
37782;DHT22;23621;50.878;4.584;2022-11-20T07:30:51;12.60;70.50
37782;DHT22;23621;50.878;4.584;2022-11-20T07:33:19;12.60;70.40
37782;DHT22;23621;50.878;4.584;2022-11-20T07:35:46;12.60;70.40
37782;DHT22;23621;50.878;4.584;2022-11-20T07:38:12;12.70;70.50
37782;DHT22;23621;50.878;4.584;2022-11-20T07:40:40;12.70;70.40
37782;DHT22;23621;50.878;4.584;2022-11-20T07:43:07;12.70;70.40
37782;DHT22;23621;50.878;4.584;2022-11-20T07:45:33;12.70;70.40
37782;DHT22;23621;50.878;4.584;2022-11-20T07:48:03;12.80;70.50
37782;DHT22;23621;50.878;4.584;2022-11-20T07:50:30;12.80;70.40
37782;DHT22;23621;50.878;4.584;2022-11-20T07:53:02;12.80;70.40
37782;DHT22;23621;50.878;4.584;2022-11-20T07:55:29;12.80;70.50
37782;DHT22;23621;50.878;4.584;2022-11-20T07:57:59;12.80;70.50
37782;DHT22;23621;50.878;4.584;2022-11-20T08:00:27;12.90;70.60
37782;DHT22;23621;50.878;4.584;2022-11-20T08:02:54;12.90;70.50
37782;DHT22;23621;50.878;4.584;2022-11-20T08:05:22;12.90;70.50
37782;DHT22;23621;50.878;4.584;2022-11-20T08:07:49;12.90;70.60
37782;DHT22;23621;50.878;4.584;2022-11-20T08:10:16;12.90;71.40
37782;DHT22;23621;50.878;4.584;2022-11-20T08:12:45;12.90;70.70
37782;DHT22;23621;50.878;4.584;2022-11-20T08:15:31;12.90;70.80
37782;DHT22;23621;50.878;4.584;2022-11-20T08:18:07;12.90;70.90
37782;DHT22;23621;50.878;4.584;2022-11-20T08:20:54;12.90;71.10
37782;DHT22;23621;50.878;4.584;2022-11-20T08:23:22;12.90;71.10
37782;DHT22;23621;50.878;4.584;2022-11-20T08:25:50;12.90;71.20
37782;DHT22;23621;50.878;4.584;2022-11-20T08:28:17;13.00;71.30
37782;DHT22;23621;50.878;4.584;2022-11-20T08:30:47;13.00;71.40
37782;DHT22;23621;50.878;4.584;2022-11-20T08:33:14;13.10;71.50
37782;DHT22;23621;50.878;4.584;2022-11-20T08:35:41;13.10;71.40
37782;DHT22;23621;50.878;4.584;2022-11-20T08:38:09;13.10;71.40
37782;DHT22;23621;50.878;4.584;2022-11-20T08:40:36;13.10;71.30
37782;DHT22;23621;50.878;4.584;2022-11-20T08:43:03;13.20;71.50
37782;DHT22;23621;50.878;4.584;2022-11-20T08:45:30;13.20;71.50
37782;DHT22;23621;50.878;4.584;2022-11-20T08:48:04;13.20;71.50
37782;DHT22;23621;50.878;4.584;2022-11-20T08:50:31;13.30;71.70
37782;DHT22;23621;50.878;4.584;2022-11-20T08:53:05;13.30;71.70
37782;DHT22;23621;50.878;4.584;2022-11-20T08:55:33;13.30;71.80
37782;DHT22;23621;50.878;4.584;2022-11-20T08:58:06;13.30;71.70
37782;DHT22;23621;50.878;4.584;2022-11-20T09:00:34;13.40;71.90
37782;DHT22;23621;50.878;4.584;2022-11-20T09:03:01;13.40;71.90
37782;DHT22;23621;50.878;4.584;2022-11-20T09:05:28;13.40;71.90
37782;DHT22;23621;50.878;4.584;2022-11-20T09:07:58;13.40;71.90
37782;DHT22;23621;50.878;4.584;2022-11-20T09:10:29;13.40;72.00
37782;DHT22;23621;50.878;4.584;2022-11-20T09:12:55;13.50;72.10
37782;DHT22;23621;50.878;4.584;2022-11-20T09:15:24;13.50;72.10
37782;DHT22;23621;50.878;4.584;2022-11-20T09:17:55;13.50;72.20
37782;DHT22;23621;50.878;4.584;2022-11-20T09:20:22;13.50;72.40
37782;DHT22;23621;50.878;4.584;2022-11-20T09:22:50;13.50;72.40
37782;DHT22;23621;50.878;4.584;2022-11-20T09:25:17;13.60;72.60
37782;DHT22;23621;50.878;4.584;2022-11-20T09:27:44;13.60;72.60
37782;DHT22;23621;50.878;4.584;2022-11-20T09:30:14;13.60;72.60
37782;DHT22;23621;50.878;4.584;2022-11-20T09:32:42;13.60;72.80
37782;DHT22;23621;50.878;4.584;2022-11-20T09:35:09;13.70;73.00
37782;DHT22;23621;50.878;4.584;2022-11-20T09:37:37;13.70;73.00
37782;DHT22;23621;50.878;4.584;2022-11-20T09:40:05;13.70;73.10
37782;DHT22;23621;50.878;4.584;2022-11-20T09:42:41;13.70;73.20
37782;DHT22;23621;50.878;4.584;2022-11-20T09:47:57;13.80;74.30
37782;DHT22;23621;50.878;4.584;2022-11-20T09:50:37;13.60;76.10
37782;DHT22;23621;50.878;4.584;2022-11-20T09:53:16;13.60;75.20
37782;DHT22;23621;50.878;4.584;2022-11-20T09:55:46;13.70;74.70
37782;DHT22;23621;50.878;4.584;2022-11-20T09:58:39;13.90;74.50
37782;DHT22;23621;50.878;4.584;2022-11-20T10:01:15;14.00;74.30
37782;DHT22;23621;50.878;4.584;2022-11-20T10:03:54;14.00;74.10
37782;DHT22;23621;50.878;4.584;2022-11-20T10:06:29;14.10;74.00
37782;DHT22;23621;50.878;4.584;2022-11-20T10:12:30;14.10;73.90
37782;DHT22;23621;50.878;4.584;2022-11-20T10:14:45;14.20;74.10
37782;DHT22;23621;50.878;4.584;2022-11-20T10:20:14;14.20;74.20
37782;DHT22;23621;50.878;4.584;2022-11-20T10:25:34;14.30;74.30
37782;DHT22;23621;50.878;4.584;2022-11-20T10:31:34;14.40;74.60
37782;DHT22;23621;50.878;4.584;2022-11-20T10:34:07;14.40;74.50
37782;DHT22;23621;50.878;4.584;2022-11-20T10:36:49;14.40;74.40
37782;DHT22;23621;50.878;4.584;2022-11-20T10:41:52;14.50;74.50
37782;DHT22;23621;50.878;4.584;2022-11-20T10:44:26;14.50;74.50
37782;DHT22;23621;50.878;4.584;2022-11-20T10:47:15;14.60;74.60
37782;DHT22;23621;50.878;4.584;2022-11-20T10:49:47;14.60;74.50
37782;DHT22;23621;50.878;4.584;2022-11-20T11:00:45;14.80;74.90
37782;DHT22;23621;50.878;4.584;2022-11-20T11:03:25;14.80;75.00
37782;DHT22;23621;50.878;4.584;2022-11-20T11:06:14;14.80;75.30
37782;DHT22;23621;50.878;4.584;2022-11-20T11:08:44;14.80;75.40
37782;DHT22;23621;50.878;4.584;2022-11-20T11:11:33;14.80;75.20
37782;DHT22;23621;50.878;4.584;2022-11-20T11:14:13;14.80;75.40
37782;DHT22;23621;50.878;4.584;2022-11-20T11:19:17;14.80;74.80
37782;DHT22;23621;50.878;4.584;2022-11-20T11:27:13;14.80;75.40
37782;DHT22;23621;50.878;4.584;2022-11-20T11:29:44;14.80;75.30
37782;DHT22;23621;50.878;4.584;2022-11-20T11:32:14;14.90;75.30
37782;DHT22;23621;50.878;4.584;2022-11-20T11:34:41;14.90;75.20
37782;DHT22;23621;50.878;4.584;2022-11-20T11:37:17;14.90;74.80
37782;DHT22;23621;50.878;4.584;2022-11-20T11:39:46;14.90;74.80
37782;DHT22;23621;50.878;4.584;2022-11-20T11:42:30;14.90;75.00
37782;DHT22;23621;50.878;4.584;2022-11-20T11:44:58;14.90;74.80
37782;DHT22;23621;50.878;4.584;2022-11-20T11:47:43;14.90;74.70
37782;DHT22;23621;50.878;4.584;2022-11-20T11:52:55;14.90;74.70
37782;DHT22;23621;50.878;4.584;2022-11-20T11:55:35;15.00;74.70
37782;DHT22;23621;50.878;4.584;2022-11-20T12:06:45;15.00;73.80
37782;DHT22;23621;50.878;4.584;2022-11-20T12:09:18;15.10;74.30
37782;DHT22;23621;50.878;4.584;2022-11-20T12:11:55;15.10;74.40
37782;DHT22;23621;50.878;4.584;2022-11-20T12:14:34;15.00;74.20
37782;DHT22;23621;50.878;4.584;2022-11-20T12:17:02;15.00;74.30
37782;DHT22;23621;50.878;4.584;2022-11-20T12:19:31;15.00;75.00
37782;DHT22;23621;50.878;4.584;2022-11-20T12:25:19;14.90;74.50
37782;DHT22;23621;50.878;4.584;2022-11-20T12:28:22;14.90;74.40
37782;DHT22;23621;50.878;4.584;2022-11-20T12:36:52;14.90;74.30
37782;DHT22;23621;50.878;4.584;2022-11-20T12:42:38;14.90;74.30
37782;DHT22;23621;50.878;4.584;2022-11-20T12:45:42;14.90;74.30
37782;DHT22;23621;50.878;4.584;2022-11-20T13:05:11;15.10;74.30
37782;DHT22;23621;50.878;4.584;2022-11-20T13:07:43;15.20;74.50
37782;DHT22;23621;50.878;4.584;2022-11-20T13:10:42;15.10;74.20
37782;DHT22;23621;50.878;4.584;2022-11-20T13:13:17;15.20;74.40
37782;DHT22;23621;50.878;4.584;2022-11-20T13:16:14;15.20;74.50
37782;DHT22;23621;50.878;4.584;2022-11-20T13:18:42;15.20;74.50
37782;DHT22;23621;50.878;4.584;2022-11-20T13:21:16;15.20;74.40
37782;DHT22;23621;50.878;4.584;2022-11-20T13:23:43;15.20;74.50
37782;DHT22;23621;50.878;4.584;2022-11-20T13:26:23;15.20;74.50
37782;DHT22;23621;50.878;4.584;2022-11-20T13:29:16;15.20;74.60
37782;DHT22;23621;50.878;4.584;2022-11-20T13:31:45;15.20;74.80
37782;DHT22;23621;50.878;4.584;2022-11-20T13:34:25;15.20;74.90
37782;DHT22;23621;50.878;4.584;2022-11-20T13:36:56;15.20;74.90
37782;DHT22;23621;50.878;4.584;2022-11-20T13:39:37;15.20;74.90
37782;DHT22;23621;50.878;4.584;2022-11-20T13:44:53;15.20;75.00
37782;DHT22;23621;50.878;4.584;2022-11-20T13:47:25;15.20;75.10
37782;DHT22;23621;50.878;4.584;2022-11-20T13:49:54;15.20;75.00
37782;DHT22;23621;50.878;4.584;2022-11-20T13:52:57;15.20;75.10
37782;DHT22;23621;50.878;4.584;2022-11-20T14:01:23;15.20;75.40
37782;DHT22;23621;50.878;4.584;2022-11-20T14:03:50;15.20;75.40
37782;DHT22;23621;50.878;4.584;2022-11-20T14:06:41;15.20;75.40
37782;DHT22;23621;50.878;4.584;2022-11-20T14:09:29;15.20;75.40
37782;DHT22;23621;50.878;4.584;2022-11-20T14:11:57;15.00;75.80
37782;DHT22;23621;50.878;4.584;2022-11-20T14:14:26;15.00;75.70
37782;DHT22;23621;50.878;4.584;2022-11-20T14:19:46;15.00;75.90
37782;DHT22;23621;50.878;4.584;2022-11-20T14:24:40;15.00;76.10
37782;DHT22;23621;50.878;4.584;2022-11-20T14:27:19;14.90;76.00
37782;DHT22;23621;50.878;4.584;2022-11-20T14:29:48;14.80;76.30
37782;DHT22;23621;50.878;4.584;2022-11-20T14:32:17;14.80;76.40
37782;DHT22;23621;50.878;4.584;2022-11-20T14:34:48;14.70;76.60
37782;DHT22;23621;50.878;4.584;2022-11-20T14:37:23;14.60;76.70
37782;DHT22;23621;50.878;4.584;2022-11-20T14:39:52;14.70;76.70
37782;DHT22;23621;50.878;4.584;2022-11-20T14:42:25;14.70;76.80
37782;DHT22;23621;50.878;4.584;2022-11-20T14:44:57;14.50;76.90
37782;DHT22;23621;50.878;4.584;2022-11-20T14:47:29;14.50;76.80
37782;DHT22;23621;50.878;4.584;2022-11-20T14:49:58;14.50;76.90
37782;DHT22;23621;50.878;4.584;2022-11-20T14:52:31;14.40;77.00
37782;DHT22;23621;50.878;4.584;2022-11-20T14:54:58;14.40;77.00
37782;DHT22;23621;50.878;4.584;2022-11-20T14:57:31;14.50;77.10
37782;DHT22;23621;50.878;4.584;2022-11-20T15:02:46;14.50;78.10
37782;DHT22;23621;50.878;4.584;2022-11-20T15:05:13;14.60;77.30
37782;DHT22;23621;50.878;4.584;2022-11-20T15:07:46;14.50;77.30
37782;DHT22;23621;50.878;4.584;2022-11-20T15:10:20;14.60;77.30
37782;DHT22;23621;50.878;4.584;2022-11-20T15:12:54;14.60;77.20
37782;DHT22;23621;50.878;4.584;2022-11-20T15:15:35;14.60;77.30
37782;DHT22;23621;50.878;4.584;2022-11-20T15:18:03;14.60;77.10
37782;DHT22;23621;50.878;4.584;2022-11-20T15:20:32;14.70;77.10
37782;DHT22;23621;50.878;4.584;2022-11-20T15:22:59;14.60;77.30
37782;DHT22;23621;50.878;4.584;2022-11-20T15:25:26;14.60;77.10
37782;DHT22;23621;50.878;4.584;2022-11-20T15:27:56;14.60;77.20
37782;DHT22;23621;50.878;4.584;2022-11-20T15:30:23;14.70;77.30
37782;DHT22;23621;50.878;4.584;2022-11-20T15:32:51;14.70;77.20
37782;DHT22;23621;50.878;4.584;2022-11-20T15:35:18;14.70;77.30
37782;DHT22;23621;50.878;4.584;2022-11-20T15:37:45;14.70;77.20
37782;DHT22;23621;50.878;4.584;2022-11-20T15:40:12;14.70;77.30
37782;DHT22;23621;50.878;4.584;2022-11-20T15:42:39;14.70;77.50
37782;DHT22;23621;50.878;4.584;2022-11-20T15:45:36;14.70;77.40
37782;DHT22;23621;50.878;4.584;2022-11-20T15:48:12;14.80;77.30
37782;DHT22;23621;50.878;4.584;2022-11-20T15:53:39;14.90;77.30
37782;DHT22;23621;50.878;4.584;2022-11-20T15:56:11;14.90;77.10
37782;DHT22;23621;50.878;4.584;2022-11-20T15:58:39;14.80;77.50
37782;DHT22;23621;50.878;4.584;2022-11-20T16:01:16;14.80;77.50
37782;DHT22;23621;50.878;4.584;2022-11-20T16:03:43;14.80;77.50
37782;DHT22;23621;50.878;4.584;2022-11-20T16:06:11;14.70;77.40
37782;DHT22;23621;50.878;4.584;2022-11-20T16:08:38;14.70;77.30
37782;DHT22;23621;50.878;4.584;2022-11-20T16:11:05;14.70;77.50
37782;DHT22;23621;50.878;4.584;2022-11-20T16:13:32;14.70;77.40
37782;DHT22;23621;50.878;4.584;2022-11-20T16:16:21;14.80;78.20
37782;DHT22;23621;50.878;4.584;2022-11-20T16:18:49;14.80;77.50
37782;DHT22;23621;50.878;4.584;2022-11-20T16:21:17;14.80;77.40
37782;DHT22;23621;50.878;4.584;2022-11-20T16:23:52;14.70;77.30
37782;DHT22;23621;50.878;4.584;2022-11-20T16:26:19;14.80;77.30
37782;DHT22;23621;50.878;4.584;2022-11-20T16:28:47;14.80;77.30
37782;DHT22;23621;50.878;4.584;2022-11-20T16:31:18;14.80;77.10
37782;DHT22;23621;50.878;4.584;2022-11-20T16:33:50;14.80;77.00
37782;DHT22;23621;50.878;4.584;2022-11-20T16:36:21;14.70;77.00
37782;DHT22;23621;50.878;4.584;2022-11-20T16:38:56;14.70;77.30
37782;DHT22;23621;50.878;4.584;2022-11-20T16:41:25;14.70;77.00
37782;DHT22;23621;50.878;4.584;2022-11-20T16:43:54;14.60;77.10
37782;DHT22;23621;50.878;4.584;2022-11-20T16:46:26;14.60;76.90
37782;DHT22;23621;50.878;4.584;2022-11-20T16:49:00;14.60;77.00
37782;DHT22;23621;50.878;4.584;2022-11-20T16:51:29;14.60;77.00
37782;DHT22;23621;50.878;4.584;2022-11-20T16:53:56;14.70;77.00
37782;DHT22;23621;50.878;4.584;2022-11-20T16:56:25;14.80;76.70
37782;DHT22;23621;50.878;4.584;2022-11-20T16:58:55;14.80;76.70
37782;DHT22;23621;50.878;4.584;2022-11-20T17:01:23;14.90;76.70
37782;DHT22;23621;50.878;4.584;2022-11-20T17:04:03;14.90;76.40
37782;DHT22;23621;50.878;4.584;2022-11-20T17:06:36;14.80;76.30
37782;DHT22;23621;50.878;4.584;2022-11-20T17:09:04;14.70;76.30
37782;DHT22;23621;50.878;4.584;2022-11-20T17:11:31;14.60;76.20
37782;DHT22;23621;50.878;4.584;2022-11-20T17:14:00;14.50;76.10
37782;DHT22;23621;50.878;4.584;2022-11-20T17:16:27;14.60;76.40
37782;DHT22;23621;50.878;4.584;2022-11-20T17:18:56;14.60;76.10
37782;DHT22;23621;50.878;4.584;2022-11-20T17:21:29;14.60;75.80
37782;DHT22;23621;50.878;4.584;2022-11-20T17:24:00;14.50;74.80
37782;DHT22;23621;50.878;4.584;2022-11-20T17:26:28;14.40;73.80